Sayner, Wisconsin
Current Conditions -  °F | °C
As of 7:15 AM on Sunday 23 Nov 2014 (Local Time) from KARV Reporting Station
Light Snow Light Snow  
Wind Chill: 37°   Ceiling: 200
Heat Index: 43°   Visibility: 0mi
Dew Point: 42°   Wind: 9mph
Humidity: 95%   Direction: 180°S
Pressure: 29.51"   Gusts: 16mph
Location:  45.99°N, 89.53°W
Report Text: KARV 231315Z AUTO 18008G14KT M1/4SM -SN OVC002 06/05 A2951 RMK AO2 T00600053
Loading
Personal Weather Stations






























Interactive Weather Map New forecast layout! Learn more

10-Day Weather Forecast

Advertisements
Track Severe Weather on mobile